sensor_id;sensor_type;location;lat;lon;timestamp;P1;durP1;ratioP1;P2;durP2;ratioP2
15498;SDS011;7851;52.260;6.030;2023-07-02T00:03:54;3.1;;;2.5;;
15498;SDS011;7851;52.260;6.030;2023-07-02T00:03:54;2.9;;;2.7;;
15498;SDS011;7851;52.260;6.030;2023-07-02T00:03:54;2.1;;;2;;
15498;SDS011;7851;52.260;6.030;2023-07-02T00:04:14;3.2;;;3;;
15498;SDS011;7851;52.260;6.030;2023-07-02T00:05:14;2.8;;;2.6;;
15498;SDS011;7851;52.260;6.030;2023-07-02T00:06:14;4;;;2.5;;
15498;SDS011;7851;52.260;6.030;2023-07-02T00:07:14;2.7;;;2.5;;
15498;SDS011;7851;52.260;6.030;2023-07-02T00:08:14;10.9;;;2.5;;
15498;SDS011;7851;52.260;6.030;2023-07-02T00:09:14;3.7;;;2.9;;
15498;SDS011;7851;52.260;6.030;2023-07-02T00:10:14;2.9;;;2.7;;
15498;SDS011;7851;52.260;6.030;2023-07-02T00:11:15;3.3;;;3;;
15498;SDS011;7851;52.260;6.030;2023-07-02T00:12:14;3.4;;;3.1;;
15498;SDS011;7851;52.260;6.030;2023-07-02T00:13:14;4;;;3.1;;
15498;SDS011;7851;52.260;6.030;2023-07-02T00:14:14;5.9;;;2.9;;
15498;SDS011;7851;52.260;6.030;2023-07-02T00:15:14;3.5;;;3.1;;
15498;SDS011;7851;52.260;6.030;2023-07-02T00:16:14;3;;;2.7;;
15498;SDS011;7851;52.260;6.030;2023-07-02T00:17:14;4.6;;;3.1;;
15498;SDS011;7851;52.260;6.030;2023-07-02T00:18:14;3.3;;;2.9;;
15498;SDS011;7851;52.260;6.030;2023-07-02T00:19:14;4;;;3.4;;
15498;SDS011;7851;52.260;6.030;2023-07-02T00:20:14;3.8;;;3.4;;
15498;SDS011;7851;52.260;6.030;2023-07-02T00:21:14;3.3;;;3;;
15498;SDS011;7851;52.260;6.030;2023-07-02T00:22:14;3.1;;;2.9;;
15498;SDS011;7851;52.260;6.030;2023-07-02T00:23:14;6.1;;;3.6;;
15498;SDS011;7851;52.260;6.030;2023-07-02T00:24:14;3.2;;;3;;
15498;SDS011;7851;52.260;6.030;2023-07-02T00:25:14;3.9;;;3.2;;
15498;SDS011;7851;52.260;6.030;2023-07-02T00:26:14;3.1;;;2.9;;
15498;SDS011;7851;52.260;6.030;2023-07-02T00:27:14;3.4;;;3.1;;
15498;SDS011;7851;52.260;6.030;2023-07-02T00:28:14;4;;;3.7;;
15498;SDS011;7851;52.260;6.030;2023-07-02T00:29:14;7.3;;;3.4;;
15498;SDS011;7851;52.260;6.030;2023-07-02T00:30:14;3.9;;;3.1;;
15498;SDS011;7851;52.260;6.030;2023-07-02T00:31:14;3.4;;;3;;
15498;SDS011;7851;52.260;6.030;2023-07-02T00:32:14;4.2;;;3.4;;
15498;SDS011;7851;52.260;6.030;2023-07-02T00:33:14;6;;;3.3;;
15498;SDS011;7851;52.260;6.030;2023-07-02T00:34:14;3.7;;;3.2;;
15498;SDS011;7851;52.260;6.030;2023-07-02T00:35:14;4.4;;;3.2;;
15498;SDS011;7851;52.260;6.030;2023-07-02T00:36:14;8.6;;;3.2;;
15498;SDS011;7851;52.260;6.030;2023-07-02T00:37:14;3.4;;;3;;
15498;SDS011;7851;52.260;6.030;2023-07-02T00:38:14;3.5;;;3.1;;
15498;SDS011;7851;52.260;6.030;2023-07-02T00:39:14;3.5;;;3.3;;
15498;SDS011;7851;52.260;6.030;2023-07-02T00:40:14;3.7;;;2.7;;
15498;SDS011;7851;52.260;6.030;2023-07-02T00:41:14;4.4;;;2.9;;
15498;SDS011;7851;52.260;6.030;2023-07-02T00:42:14;3.6;;;3.3;;
15498;SDS011;7851;52.260;6.030;2023-07-02T00:43:14;3.6;;;2.9;;
15498;SDS011;7851;52.260;6.030;2023-07-02T00:44:14;3.8;;;2.7;;
15498;SDS011;7851;52.260;6.030;2023-07-02T00:45:14;3.4;;;3.1;;
15498;SDS011;7851;52.260;6.030;2023-07-02T00:46:14;5.7;;;3.4;;
15498;SDS011;7851;52.260;6.030;2023-07-02T00:47:14;6.6;;;3.3;;
15498;SDS011;7851;52.260;6.030;2023-07-02T00:48:14;4.5;;;2.9;;
15498;SDS011;7851;52.260;6.030;2023-07-02T00:49:14;3.3;;;3.1;;
15498;SDS011;7851;52.260;6.030;2023-07-02T00:50:14;10.3;;;2.8;;
15498;SDS011;7851;52.260;6.030;2023-07-02T00:51:14;3.1;;;2.9;;
15498;SDS011;7851;52.260;6.030;2023-07-02T00:52:14;2.9;;;2.7;;
15498;SDS011;7851;52.260;6.030;2023-07-02T00:53:14;3.2;;;2.9;;
15498;SDS011;7851;52.260;6.030;2023-07-02T00:54:14;3.4;;;3.1;;
15498;SDS011;7851;52.260;6.030;2023-07-02T00:55:14;3.7;;;3.2;;
15498;SDS011;7851;52.260;6.030;2023-07-02T00:56:14;3.8;;;3.5;;
15498;SDS011;7851;52.260;6.030;2023-07-02T00:57:14;3.6;;;3.3;;
15498;SDS011;7851;52.260;6.030;2023-07-02T00:58:14;4.7;;;3.5;;
15498;SDS011;7851;52.260;6.030;2023-07-02T00:59:14;5.5;;;3.5;;
15498;SDS011;7851;52.260;6.030;2023-07-02T01:00:14;3.5;;;3.2;;
15498;SDS011;7851;52.260;6.030;2023-07-02T01:01:14;3.3;;;3;;
15498;SDS011;7851;52.260;6.030;2023-07-02T01:02:14;3.1;;;2.8;;
15498;SDS011;7851;52.260;6.030;2023-07-02T01:03:14;3.6;;;3.2;;
15498;SDS011;7851;52.260;6.030;2023-07-02T01:04:14;4.8;;;3.1;;
15498;SDS011;7851;52.260;6.030;2023-07-02T01:05:14;4.8;;;3.2;;
15498;SDS011;7851;52.260;6.030;2023-07-02T01:06:14;3.1;;;2.8;;
15498;SDS011;7851;52.260;6.030;2023-07-02T01:07:14;4.2;;;3.3;;
15498;SDS011;7851;52.260;6.030;2023-07-02T01:08:14;3.6;;;2.9;;
15498;SDS011;7851;52.260;6.030;2023-07-02T01:09:14;4.2;;;3.1;;
15498;SDS011;7851;52.260;6.030;2023-07-02T01:10:14;3.3;;;3.1;;
15498;SDS011;7851;52.260;6.030;2023-07-02T01:11:14;3.8;;;3.3;;
15498;SDS011;7851;52.260;6.030;2023-07-02T01:12:14;3.2;;;2.9;;
15498;SDS011;7851;52.260;6.030;2023-07-02T01:13:15;3.4;;;3.1;;
15498;SDS011;7851;52.260;6.030;2023-07-02T01:14:14;2.8;;;2.7;;
15498;SDS011;7851;52.260;6.030;2023-07-02T01:15:14;3.1;;;2.9;;
15498;SDS011;7851;52.260;6.030;2023-07-02T01:16:14;3.3;;;2.6;;
15498;SDS011;7851;52.260;6.030;2023-07-02T01:17:14;3.3;;;3.1;;
15498;SDS011;7851;52.260;6.030;2023-07-02T01:18:14;3;;;2.7;;
15498;SDS011;7851;52.260;6.030;2023-07-02T01:19:15;3.3;;;3;;
15498;SDS011;7851;52.260;6.030;2023-07-02T01:20:14;3.5;;;3.2;;
15498;SDS011;7851;52.260;6.030;2023-07-02T01:21:14;3.7;;;3.2;;
15498;SDS011;7851;52.260;6.030;2023-07-02T01:22:14;3.5;;;3.2;;
15498;SDS011;7851;52.260;6.030;2023-07-02T01:23:14;3.6;;;3.3;;
15498;SDS011;7851;52.260;6.030;2023-07-02T01:24:14;3.1;;;2.7;;
15498;SDS011;7851;52.260;6.030;2023-07-02T01:25:14;3.7;;;3.4;;
15498;SDS011;7851;52.260;6.030;2023-07-02T01:26:14;4.3;;;3.5;;
15498;SDS011;7851;52.260;6.030;2023-07-02T01:27:14;3.5;;;3.2;;
15498;SDS011;7851;52.260;6.030;2023-07-02T01:28:14;4.1;;;3.5;;
15498;SDS011;7851;52.260;6.030;2023-07-02T01:29:14;3.9;;;3.4;;
15498;SDS011;7851;52.260;6.030;2023-07-02T01:30:13;4.1;;;3.7;;
15498;SDS011;7851;52.260;6.030;2023-07-02T01:31:14;4.5;;;3.4;;
15498;SDS011;7851;52.260;6.030;2023-07-02T01:32:14;9.4;;;3.9;;
15498;SDS011;7851;52.260;6.030;2023-07-02T01:33:14;4.4;;;3.5;;
15498;SDS011;7851;52.260;6.030;2023-07-02T01:34:14;5;;;3.5;;
15498;SDS011;7851;52.260;6.030;2023-07-02T01:35:14;3.8;;;3.5;;
15498;SDS011;7851;52.260;6.030;2023-07-02T01:36:14;8.8;;;3.8;;
15498;SDS011;7851;52.260;6.030;2023-07-02T01:37:14;5.6;;;4.2;;
15498;SDS011;7851;52.260;6.030;2023-07-02T01:38:14;3.8;;;3.3;;
15498;SDS011;7851;52.260;6.030;2023-07-02T01:39:14;4.7;;;4.2;;
15498;SDS011;7851;52.260;6.030;2023-07-02T01:40:14;6.8;;;4.1;;
15498;SDS011;7851;52.260;6.030;2023-07-02T01:41:14;6.4;;;4.6;;
15498;SDS011;7851;52.260;6.030;2023-07-02T01:42:14;6.9;;;4.2;;
15498;SDS011;7851;52.260;6.030;2023-07-02T01:43:14;8.2;;;4.4;;
15498;SDS011;7851;52.260;6.030;2023-07-02T01:44:14;5.3;;;4.1;;
15498;SDS011;7851;52.260;6.030;2023-07-02T01:45:14;10.5;;;4.6;;
15498;SDS011;7851;52.260;6.030;2023-07-02T01:46:14;5.4;;;3.7;;
15498;SDS011;7851;52.260;6.030;2023-07-02T01:47:14;7;;;4;;
15498;SDS011;7851;52.260;6.030;2023-07-02T01:48:14;5;;;4;;
15498;SDS011;7851;52.260;6.030;2023-07-02T01:49:14;5.4;;;4.1;;
15498;SDS011;7851;52.260;6.030;2023-07-02T01:50:14;9.1;;;4.4;;
15498;SDS011;7851;52.260;6.030;2023-07-02T01:51:14;15;;;4.8;;
15498;SDS011;7851;52.260;6.030;2023-07-02T01:52:13;6;;;3.9;;
15498;SDS011;7851;52.260;6.030;2023-07-02T01:53:14;9.8;;;4.3;;
15498;SDS011;7851;52.260;6.030;2023-07-02T01:54:14;5.3;;;4.2;;
15498;SDS011;7851;52.260;6.030;2023-07-02T01:55:14;6.3;;;4.3;;
15498;SDS011;7851;52.260;6.030;2023-07-02T01:56:14;8.7;;;5;;
15498;SDS011;7851;52.260;6.030;2023-07-02T01:57:14;9.2;;;4.4;;
15498;SDS011;7851;52.260;6.030;2023-07-02T01:58:14;8.2;;;4.6;;
15498;SDS011;7851;52.260;6.030;2023-07-02T01:59:14;5;;;4.5;;
15498;SDS011;7851;52.260;6.030;2023-07-02T02:00:14;4.8;;;4.1;;
15498;SDS011;7851;52.260;6.030;2023-07-02T02:01:14;8.9;;;4.5;;
15498;SDS011;7851;52.260;6.030;2023-07-02T02:02:14;5.3;;;4.4;;
15498;SDS011;7851;52.260;6.030;2023-07-02T02:03:14;4.5;;;3.8;;
15498;SDS011;7851;52.260;6.030;2023-07-02T02:04:14;8;;;4.4;;
15498;SDS011;7851;52.260;6.030;2023-07-02T02:05:14;6.6;;;4.3;;
15498;SDS011;7851;52.260;6.030;2023-07-02T02:06:14;6.2;;;4.4;;
15498;SDS011;7851;52.260;6.030;2023-07-02T02:07:14;8;;;4.6;;
15498;SDS011;7851;52.260;6.030;2023-07-02T02:08:14;7.5;;;4.6;;
15498;SDS011;7851;52.260;6.030;2023-07-02T02:09:13;4.8;;;4.2;;
15498;SDS011;7851;52.260;6.030;2023-07-02T02:10:14;6.9;;;4.4;;
15498;SDS011;7851;52.260;6.030;2023-07-02T02:11:13;5.8;;;3.8;;
15498;SDS011;7851;52.260;6.030;2023-07-02T02:12:14;9.5;;;4.6;;
15498;SDS011;7851;52.260;6.030;2023-07-02T02:13:14;8.7;;;5.2;;
15498;SDS011;7851;52.260;6.030;2023-07-02T02:14:14;5.8;;;4.4;;
15498;SDS011;7851;52.260;6.030;2023-07-02T02:15:14;6.1;;;4.4;;
15498;SDS011;7851;52.260;6.030;2023-07-02T02:16:14;5.3;;;4.6;;
15498;SDS011;7851;52.260;6.030;2023-07-02T02:17:14;7.2;;;4.3;;
15498;SDS011;7851;52.260;6.030;2023-07-02T02:18:14;6.9;;;4.9;;
15498;SDS011;7851;52.260;6.030;2023-07-02T02:19:14;6.1;;;4.7;;
15498;SDS011;7851;52.260;6.030;2023-07-02T02:20:14;8.4;;;4.8;;
15498;SDS011;7851;52.260;6.030;2023-07-02T02:21:14;11.6;;;5.4;;
15498;SDS011;7851;52.260;6.030;2023-07-02T02:22:14;7.1;;;5;;
15498;SDS011;7851;52.260;6.030;2023-07-02T02:23:14;6.3;;;5.1;;
15498;SDS011;7851;52.260;6.030;2023-07-02T02:24:14;7.8;;;4.4;;
15498;SDS011;7851;52.260;6.030;2023-07-02T02:25:14;6.9;;;5;;
15498;SDS011;7851;52.260;6.030;2023-07-02T02:26:14;10.9;;;5.7;;
15498;SDS011;7851;52.260;6.030;2023-07-02T02:27:13;10.7;;;5;;
15498;SDS011;7851;52.260;6.030;2023-07-02T02:28:14;13.9;;;4.9;;
15498;SDS011;7851;52.260;6.030;2023-07-02T02:29:14;5.5;;;4.5;;
15498;SDS011;7851;52.260;6.030;2023-07-02T02:30:13;6.5;;;4.7;;
15498;SDS011;7851;52.260;6.030;2023-07-02T02:31:14;7.6;;;4.9;;
15498;SDS011;7851;52.260;6.030;2023-07-02T02:32:14;8.7;;;5.2;;
15498;SDS011;7851;52.260;6.030;2023-07-02T02:33:14;7.9;;;4.9;;
15498;SDS011;7851;52.260;6.030;2023-07-02T02:34:14;8.4;;;5;;
15498;SDS011;7851;52.260;6.030;2023-07-02T02:35:14;9.9;;;5.8;;
15498;SDS011;7851;52.260;6.030;2023-07-02T02:36:14;11;;;5.6;;
15498;SDS011;7851;52.260;6.030;2023-07-02T02:37:14;7.7;;;5.2;;
15498;SDS011;7851;52.260;6.030;2023-07-02T02:38:14;7.7;;;5.2;;
15498;SDS011;7851;52.260;6.030;2023-07-02T02:39:13;8.7;;;4.7;;
15498;SDS011;7851;52.260;6.030;2023-07-02T02:40:14;9.5;;;5.2;;
15498;SDS011;7851;52.260;6.030;2023-07-02T02:41:14;14.4;;;5.6;;
15498;SDS011;7851;52.260;6.030;2023-07-02T02:42:14;14.1;;;5.8;;
15498;SDS011;7851;52.260;6.030;2023-07-02T02:43:14;7.4;;;5;;
15498;SDS011;7851;52.260;6.030;2023-07-02T02:44:14;6.8;;;5.4;;
15498;SDS011;7851;52.260;6.030;2023-07-02T02:45:14;10.7;;;5.5;;
15498;SDS011;7851;52.260;6.030;2023-07-02T02:46:19;9.2;;;5.3;;
15498;SDS011;7851;52.260;6.030;2023-07-02T02:47:14;7.4;;;5.1;;
15498;SDS011;7851;52.260;6.030;2023-07-02T02:48:14;9.2;;;5.4;;
15498;SDS011;7851;52.260;6.030;2023-07-02T02:49:13;11.6;;;5.3;;
15498;SDS011;7851;52.260;6.030;2023-07-02T02:50:14;10.2;;;5.2;;
15498;SDS011;7851;52.260;6.030;2023-07-02T02:51:14;5.8;;;4.6;;
15498;SDS011;7851;52.260;6.030;2023-07-02T02:52:14;7.9;;;5.4;;
15498;SDS011;7851;52.260;6.030;2023-07-02T02:53:14;8.5;;;4.8;;
15498;SDS011;7851;52.260;6.030;2023-07-02T02:54:14;9.8;;;5.6;;
15498;SDS011;7851;52.260;6.030;2023-07-02T02:55:14;6.8;;;5.1;;
15498;SDS011;7851;52.260;6.030;2023-07-02T02:56:14;6.9;;;5.2;;
15498;SDS011;7851;52.260;6.030;2023-07-02T02:57:13;12.1;;;4.7;;
15498;SDS011;7851;52.260;6.030;2023-07-02T02:58:14;6.4;;;4.8;;
15498;SDS011;7851;52.260;6.030;2023-07-02T02:59:14;6.6;;;4.9;;
15498;SDS011;7851;52.260;6.030;2023-07-02T03:00:14;8.9;;;4.6;;
15498;SDS011;7851;52.260;6.030;2023-07-02T03:01:14;9.5;;;5.1;;
15498;SDS011;7851;52.260;6.030;2023-07-02T03:02:13;11.4;;;5;;
15498;SDS011;7851;52.260;6.030;2023-07-02T03:03:13;9.8;;;5.2;;
15498;SDS011;7851;52.260;6.030;2023-07-02T03:04:14;11.5;;;4.9;;
15498;SDS011;7851;52.260;6.030;2023-07-02T03:05:14;8.9;;;5.2;;
15498;SDS011;7851;52.260;6.030;2023-07-02T03:06:14;6;;;4.7;;
15498;SDS011;7851;52.260;6.030;2023-07-02T03:07:14;10.8;;;5;;
15498;SDS011;7851;52.260;6.030;2023-07-02T03:08:14;6.9;;;5;;
15498;SDS011;7851;52.260;6.030;2023-07-02T03:09:14;9.2;;;5.2;;
15498;SDS011;7851;52.260;6.030;2023-07-02T03:10:14;8.5;;;5;;
15498;SDS011;7851;52.260;6.030;2023-07-02T03:11:14;8.8;;;4.3;;
15498;SDS011;7851;52.260;6.030;2023-07-02T03:12:14;6.8;;;4.8;;
15498;SDS011;7851;52.260;6.030;2023-07-02T03:13:13;7.9;;;5.6;;
15498;SDS011;7851;52.260;6.030;2023-07-02T03:14:14;8.3;;;4.8;;
15498;SDS011;7851;52.260;6.030;2023-07-02T03:15:14;8.7;;;4.8;;
15498;SDS011;7851;52.260;6.030;2023-07-02T03:16:14;6.2;;;4.9;;
15498;SDS011;7851;52.260;6.030;2023-07-02T03:17:14;6.9;;;4.8;;
15498;SDS011;7851;52.260;6.030;2023-07-02T03:18:14;8;;;5.2;;
15498;SDS011;7851;52.260;6.030;2023-07-02T03:19:13;8.2;;;5.2;;
15498;SDS011;7851;52.260;6.030;2023-07-02T03:20:13;8.7;;;5;;
15498;SDS011;7851;52.260;6.030;2023-07-02T03:21:14;8.7;;;5.4;;
15498;SDS011;7851;52.260;6.030;2023-07-02T03:22:14;10.8;;;5.5;;
15498;SDS011;7851;52.260;6.030;2023-07-02T03:23:14;10.4;;;5.2;;
15498;SDS011;7851;52.260;6.030;2023-07-02T03:24:13;10;;;5.5;;
15498;SDS011;7851;52.260;6.030;2023-07-02T03:25:14;11.7;;;5.8;;
15498;SDS011;7851;52.260;6.030;2023-07-02T03:26:13;6.8;;;5;;
15498;SDS011;7851;52.260;6.030;2023-07-02T03:27:14;6.9;;;5;;
15498;SDS011;7851;52.260;6.030;2023-07-02T03:28:14;9.4;;;5.7;;
15498;SDS011;7851;52.260;6.030;2023-07-02T03:29:14;8.6;;;5.4;;
15498;SDS011;7851;52.260;6.030;2023-07-02T03:30:14;5.9;;;5.1;;
15498;SDS011;7851;52.260;6.030;2023-07-02T03:31:14;10.3;;;5.8;;
15498;SDS011;7851;52.260;6.030;2023-07-02T03:32:14;12.5;;;5.8;;
15498;SDS011;7851;52.260;6.030;2023-07-02T03:33:14;10.6;;;5.5;;
15498;SDS011;7851;52.260;6.030;2023-07-02T03:34:14;10.6;;;5.8;;
15498;SDS011;7851;52.260;6.030;2023-07-02T03:35:14;20.8;;;6.6;;
15498;SDS011;7851;52.260;6.030;2023-07-02T03:36:13;11.6;;;6.1;;
15498;SDS011;7851;52.260;6.030;2023-07-02T03:37:13;12.5;;;6.2;;
15498;SDS011;7851;52.260;6.030;2023-07-02T03:38:13;8.8;;;5.2;;
15498;SDS011;7851;52.260;6.030;2023-07-02T03:39:14;8;;;6.1;;
15498;SDS011;7851;52.260;6.030;2023-07-02T03:40:13;11.9;;;5.6;;
15498;SDS011;7851;52.260;6.030;2023-07-02T03:41:13;7.1;;;5.6;;
15498;SDS011;7851;52.260;6.030;2023-07-02T03:42:13;8.5;;;5.7;;
15498;SDS011;7851;52.260;6.030;2023-07-02T03:43:13;12.6;;;6.2;;
15498;SDS011;7851;52.260;6.030;2023-07-02T03:44:13;12.8;;;5.6;;
15498;SDS011;7851;52.260;6.030;2023-07-02T03:45:14;11.4;;;5.3;;
15498;SDS011;7851;52.260;6.030;2023-07-02T03:46:14;13.2;;;5.4;;
15498;SDS011;7851;52.260;6.030;2023-07-02T03:47:13;10.6;;;5.3;;
15498;SDS011;7851;52.260;6.030;2023-07-02T03:48:13;10.1;;;5.8;;
15498;SDS011;7851;52.260;6.030;2023-07-02T03:49:13;7.4;;;5.4;;
15498;SDS011;7851;52.260;6.030;2023-07-02T03:50:14;7.3;;;5.5;;
15498;SDS011;7851;52.260;6.030;2023-07-02T03:51:14;6.7;;;5.3;;
15498;SDS011;7851;52.260;6.030;2023-07-02T03:52:13;11.3;;;5.9;;
15498;SDS011;7851;52.260;6.030;2023-07-02T03:53:13;9.9;;;5.7;;
15498;SDS011;7851;52.260;6.030;2023-07-02T03:54:13;10.6;;;6.2;;
15498;SDS011;7851;52.260;6.030;2023-07-02T03:55:14;9.8;;;5.4;;
15498;SDS011;7851;52.260;6.030;2023-07-02T03:56:14;11.7;;;5.3;;
15498;SDS011;7851;52.260;6.030;2023-07-02T03:57:14;9.8;;;6;;
15498;SDS011;7851;52.260;6.030;2023-07-02T03:58:14;9.6;;;5.7;;
15498;SDS011;7851;52.260;6.030;2023-07-02T03:59:13;6.3;;;5.3;;
15498;SDS011;7851;52.260;6.030;2023-07-02T04:00:14;10.2;;;5.6;;
15498;SDS011;7851;52.260;6.030;2023-07-02T04:01:14;7.9;;;5.9;;
15498;SDS011;7851;52.260;6.030;2023-07-02T04:02:13;8.3;;;5.4;;
15498;SDS011;7851;52.260;6.030;2023-07-02T04:03:14;8.2;;;5.6;;
15498;SDS011;7851;52.260;6.030;2023-07-02T04:04:13;8;;;5.2;;
15498;SDS011;7851;52.260;6.030;2023-07-02T04:05:14;10.6;;;5.9;;
15498;SDS011;7851;52.260;6.030;2023-07-02T04:06:13;7.1;;;5.5;;
15498;SDS011;7851;52.260;6.030;2023-07-02T04:07:13;9.7;;;6;;
15498;SDS011;7851;52.260;6.030;2023-07-02T04:08:14;8.1;;;5;;
15498;SDS011;7851;52.260;6.030;2023-07-02T04:09:14;10.9;;;5.5;;
15498;SDS011;7851;52.260;6.030;2023-07-02T04:10:13;11.1;;;5.5;;
15498;SDS011;7851;52.260;6.030;2023-07-02T04:11:14;11.2;;;5.7;;
15498;SDS011;7851;52.260;6.030;2023-07-02T04:12:14;8.8;;;5.9;;
15498;SDS011;7851;52.260;6.030;2023-07-02T04:13:13;8;;;5.6;;
15498;SDS011;7851;52.260;6.030;2023-07-02T04:14:14;10.5;;;5.7;;
15498;SDS011;7851;52.260;6.030;2023-07-02T04:15:14;7.6;;;5.4;;
15498;SDS011;7851;52.260;6.030;2023-07-02T04:16:14;8.6;;;6.2;;
15498;SDS011;7851;52.260;6.030;2023-07-02T04:17:13;11.9;;;6.3;;
15498;SDS011;7851;52.260;6.030;2023-07-02T04:18:13;9.8;;;5.8;;
15498;SDS011;7851;52.260;6.030;2023-07-02T04:19:13;9.5;;;5.6;;
15498;SDS011;7851;52.260;6.030;2023-07-02T04:20:13;9.7;;;6;;
15498;SDS011;7851;52.260;6.030;2023-07-02T04:21:13;8.7;;;5.6;;
15498;SDS011;7851;52.260;6.030;2023-07-02T04:22:14;12.3;;;5.8;;
15498;SDS011;7851;52.260;6.030;2023-07-02T04:23:14;8.6;;;6;;
15498;SDS011;7851;52.260;6.030;2023-07-02T04:24:13;11.9;;;5.6;;
15498;SDS011;7851;52.260;6.030;2023-07-02T04:25:14;16.3;;;5.8;;
15498;SDS011;7851;52.260;6.030;2023-07-02T04:26:13;9.6;;;5.5;;
15498;SDS011;7851;52.260;6.030;2023-07-02T04:27:14;11.1;;;6.4;;
15498;SDS011;7851;52.260;6.030;2023-07-02T04:28:13;17.8;;;6.1;;
15498;SDS011;7851;52.260;6.030;2023-07-02T04:29:13;12.7;;;6.2;;
15498;SDS011;7851;52.260;6.030;2023-07-02T04:30:14;10.2;;;5.7;;
15498;SDS011;7851;52.260;6.030;2023-07-02T04:31:13;11;;;5.8;;
15498;SDS011;7851;52.260;6.030;2023-07-02T04:32:13;7.3;;;5.4;;
15498;SDS011;7851;52.260;6.030;2023-07-02T04:33:13;9.9;;;5.9;;
15498;SDS011;7851;52.260;6.030;2023-07-02T04:34:13;8.5;;;5.8;;
15498;SDS011;7851;52.260;6.030;2023-07-02T04:35:13;13.9;;;6;;
15498;SDS011;7851;52.260;6.030;2023-07-02T04:36:14;10.5;;;6.1;;
15498;SDS011;7851;52.260;6.030;2023-07-02T04:37:13;7.9;;;5.6;;
15498;SDS011;7851;52.260;6.030;2023-07-02T04:38:13;8.2;;;6;;
15498;SDS011;7851;52.260;6.030;2023-07-02T04:39:13;8.1;;;6;;
15498;SDS011;7851;52.260;6.030;2023-07-02T04:40:14;10.1;;;5.6;;
15498;SDS011;7851;52.260;6.030;2023-07-02T04:41:13;16.5;;;6.4;;
15498;SDS011;7851;52.260;6.030;2023-07-02T04:42:13;13.1;;;6;;
15498;SDS011;7851;52.260;6.030;2023-07-02T04:43:13;11.5;;;6;;
15498;SDS011;7851;52.260;6.030;2023-07-02T04:44:13;8.9;;;5.6;;
15498;SDS011;7851;52.260;6.030;2023-07-02T04:45:14;14.4;;;6.3;;
15498;SDS011;7851;52.260;6.030;2023-07-02T04:46:14;7.2;;;5.4;;
15498;SDS011;7851;52.260;6.030;2023-07-02T04:47:13;6.1;;;5.5;;
15498;SDS011;7851;52.260;6.030;2023-07-02T04:48:14;10;;;5.6;;
15498;SDS011;7851;52.260;6.030;2023-07-02T04:49:13;11.3;;;5.7;;
15498;SDS011;7851;52.260;6.030;2023-07-02T04:50:13;15.8;;;7;;
15498;SDS011;7851;52.260;6.030;2023-07-02T04:51:14;10.7;;;5.5;;
15498;SDS011;7851;52.260;6.030;2023-07-02T04:52:14;12.5;;;5.9;;
15498;SDS011;7851;52.260;6.030;2023-07-02T04:53:13;13.1;;;5.6;;
15498;SDS011;7851;52.260;6.030;2023-07-02T04:54:13;8.4;;;6;;
15498;SDS011;7851;52.260;6.030;2023-07-02T04:55:13;14.8;;;6.5;;
15498;SDS011;7851;52.260;6.030;2023-07-02T04:56:13;12.3;;;6.2;;
15498;SDS011;7851;52.260;6.030;2023-07-02T04:57:13;12.1;;;6;;
15498;SDS011;7851;52.260;6.030;2023-07-02T04:58:13;9.5;;;6;;
15498;SDS011;7851;52.260;6.030;2023-07-02T04:59:14;10.4;;;6;;
15498;SDS011;7851;52.260;6.030;2023-07-02T05:00:14;11.5;;;6.3;;
15498;SDS011;7851;52.260;6.030;2023-07-02T05:01:13;9;;;5.9;;
15498;SDS011;7851;52.260;6.030;2023-07-02T05:02:14;8.9;;;5.8;;
15498;SDS011;7851;52.260;6.030;2023-07-02T05:03:13;14.4;;;6.4;;
15498;SDS011;7851;52.260;6.030;2023-07-02T05:04:14;9.9;;;6.5;;
15498;SDS011;7851;52.260;6.030;2023-07-02T05:05:13;12.1;;;5.6;;
15498;SDS011;7851;52.260;6.030;2023-07-02T05:06:14;7.2;;;5.6;;
15498;SDS011;7851;52.260;6.030;2023-07-02T05:07:13;13.2;;;11;;
15498;SDS011;7851;52.260;6.030;2023-07-02T05:08:14;15;;;12;;
15498;SDS011;7851;52.260;6.030;2023-07-02T05:09:14;13.7;;;12.3;;
15498;SDS011;7851;52.260;6.030;2023-07-02T05:10:14;13.5;;;12;;
15498;SDS011;7851;52.260;6.030;2023-07-02T05:11:14;14.9;;;12.2;;
15498;SDS011;7851;52.260;6.030;2023-07-02T05:12:14;13.8;;;12;;
15498;SDS011;7851;52.260;6.030;2023-07-02T05:13:13;14.6;;;12.4;;
15498;SDS011;7851;52.260;6.030;2023-07-02T05:14:13;14.2;;;11.9;;
15498;SDS011;7851;52.260;6.030;2023-07-02T05:15:14;15.5;;;12.6;;
15498;SDS011;7851;52.260;6.030;2023-07-02T05:16:14;15;;;12.1;;
15498;SDS011;7851;52.260;6.030;2023-07-02T05:17:13;14.3;;;12.7;;
15498;SDS011;7851;52.260;6.030;2023-07-02T05:18:13;14.3;;;12.7;;
15498;SDS011;7851;52.260;6.030;2023-07-02T05:19:13;17.5;;;13.2;;
15498;SDS011;7851;52.260;6.030;2023-07-02T05:20:14;18;;;13.1;;
15498;SDS011;7851;52.260;6.030;2023-07-02T05:21:16;15;;;13.4;;
15498;SDS011;7851;52.260;6.030;2023-07-02T05:22:13;14.4;;;13;;
15498;SDS011;7851;52.260;6.030;2023-07-02T05:23:13;14.6;;;13;;
15498;SDS011;7851;52.260;6.030;2023-07-02T05:24:13;19.1;;;13.2;;
15498;SDS011;7851;52.260;6.030;2023-07-02T05:25:13;13.3;;;12;;
15498;SDS011;7851;52.260;6.030;2023-07-02T05:26:14;16.4;;;13;;
15498;SDS011;7851;52.260;6.030;2023-07-02T05:27:13;14.8;;;13.4;;
15498;SDS011;7851;52.260;6.030;2023-07-02T05:28:13;14.1;;;12.7;;
15498;SDS011;7851;52.260;6.030;2023-07-02T05:29:14;19.9;;;13.8;;
15498;SDS011;7851;52.260;6.030;2023-07-02T05:30:13;15.1;;;13.3;;
15498;SDS011;7851;52.260;6.030;2023-07-02T05:31:13;14.7;;;12.8;;
15498;SDS011;7851;52.260;6.030;2023-07-02T05:32:13;15.3;;;12.6;;
15498;SDS011;7851;52.260;6.030;2023-07-02T05:33:13;14.8;;;13.4;;
15498;SDS011;7851;52.260;6.030;2023-07-02T05:34:13;26.5;;;14.2;;
15498;SDS011;7851;52.260;6.030;2023-07-02T05:35:14;18.7;;;13.8;;
15498;SDS011;7851;52.260;6.030;2023-07-02T05:36:14;15.4;;;13.2;;
15498;SDS011;7851;52.260;6.030;2023-07-02T05:37:13;15.3;;;13.2;;
15498;SDS011;7851;52.260;6.030;2023-07-02T05:38:13;14;;;12.5;;
15498;SDS011;7851;52.260;6.030;2023-07-02T05:39:13;16.5;;;12.8;;
15498;SDS011;7851;52.260;6.030;2023-07-02T05:40:13;16.8;;;13.2;;
15498;SDS011;7851;52.260;6.030;2023-07-02T05:41:17;13.7;;;12.4;;
15498;SDS011;7851;52.260;6.030;2023-07-02T05:42:13;17.1;;;14.2;;
15498;SDS011;7851;52.260;6.030;2023-07-02T05:43:13;18.3;;;13.6;;
15498;SDS011;7851;52.260;6.030;2023-07-02T05:44:13;16.2;;;14.2;;
15498;SDS011;7851;52.260;6.030;2023-07-02T05:45:13;14.2;;;12.8;;
15498;SDS011;7851;52.260;6.030;2023-07-02T05:46:14;14.5;;;13.1;;
15498;SDS011;7851;52.260;6.030;2023-07-02T05:47:13;21.4;;;14.1;;
15498;SDS011;7851;52.260;6.030;2023-07-02T05:48:13;15.8;;;13.6;;
15498;SDS011;7851;52.260;6.030;2023-07-02T05:49:13;16.6;;;14.5;;
15498;SDS011;7851;52.260;6.030;2023-07-02T05:50:13;19.3;;;13.9;;
15498;SDS011;7851;52.260;6.030;2023-07-02T05:51:13;23.4;;;13.4;;
15498;SDS011;7851;52.260;6.030;2023-07-02T05:52:13;14.6;;;13;;
15498;SDS011;7851;52.260;6.030;2023-07-02T05:53:13;16.9;;;14.1;;
15498;SDS011;7851;52.260;6.030;2023-07-02T05:54:13;26.6;;;14.7;;
15498;SDS011;7851;52.260;6.030;2023-07-02T05:55:13;16;;;14.3;;
15498;SDS011;7851;52.260;6.030;2023-07-02T05:56:13;18;;;13.4;;
15498;SDS011;7851;52.260;6.030;2023-07-02T05:57:13;15.1;;;13.6;;
15498;SDS011;7851;52.260;6.030;2023-07-02T05:58:13;15.5;;;14;;
15498;SDS011;7851;52.260;6.030;2023-07-02T05:59:13;15.7;;;14.2;;
15498;SDS011;7851;52.260;6.030;2023-07-02T06:00:14;20.1;;;15;;
15498;SDS011;7851;52.260;6.030;2023-07-02T06:01:13;24.8;;;15.2;;
15498;SDS011;7851;52.260;6.030;2023-07-02T06:02:13;16.5;;;14.9;;
15498;SDS011;7851;52.260;6.030;2023-07-02T06:03:13;19;;;15.6;;
15498;SDS011;7851;52.260;6.030;2023-07-02T06:04:14;16.9;;;15.1;;
15498;SDS011;7851;52.260;6.030;2023-07-02T06:05:13;19.2;;;15.5;;
15498;SDS011;7851;52.260;6.030;2023-07-02T06:06:13;19.5;;;16.7;;
15498;SDS011;7851;52.260;6.030;2023-07-02T06:07:13;19.1;;;16.8;;
15498;SDS011;7851;52.260;6.030;2023-07-02T06:08:13;19.3;;;17.5;;
15498;SDS011;7851;52.260;6.030;2023-07-02T06:09:14;20.1;;;18.2;;
15498;SDS011;7851;52.260;6.030;2023-07-02T06:10:14;21.6;;;17.9;;
15498;SDS011;7851;52.260;6.030;2023-07-02T06:11:14;19.4;;;17.7;;
15498;SDS011;7851;52.260;6.030;2023-07-02T06:12:13;20.2;;;18.1;;
15498;SDS011;7851;52.260;6.030;2023-07-02T06:13:14;22.8;;;18.2;;
15498;SDS011;7851;52.260;6.030;2023-07-02T06:14:13;18.9;;;17;;
15498;SDS011;7851;52.260;6.030;2023-07-02T06:15:13;19;;;17.2;;
15498;SDS011;7851;52.260;6.030;2023-07-02T06:16:13;18.9;;;17;;
15498;SDS011;7851;52.260;6.030;2023-07-02T06:17:14;20.2;;;18.3;;
15498;SDS011;7851;52.260;6.030;2023-07-02T06:18:13;19.4;;;17.4;;